Time;durP1;ratioP1;P1;durP2;ratioP2;P2;SDS_P1;SDS_P2;PMS_P1;PMS_P2;Temp;Humidity;BMP_temperature;BMP_pressure;BME280_temperature;BME280_humidity;BME280_pressure;Samples;Min_cycle;Max_cycle;Signal;HPM_P1;HPM_P2
2023/10/31 00:01:12;;;;;;;23.85;12.60;;;;;;;8.32;100.00;97385.28;5063230;28;20107;-84
2023/10/31 00:03:56;;;;;;;20.52;12.63;;;;;;;8.38;100.00;97390.44;5067861;28;20050;-84
2023/10/31 00:06:40;;;;;;;29.00;13.45;;;;;;;8.35;100.00;97390.88;5070324;28;20040;-84
2023/10/31 00:09:24;;;;;;;23.42;13.18;;;;;;;8.32;100.00;97388.72;5065726;28;20047;-84
2023/10/31 00:12:12;;;;;;;29.33;13.38;;;;;;;8.36;100.00;97397.69;5065854;28;20571;-84
2023/10/31 00:14:56;;;;;;;23.35;13.20;;;;;;;8.40;100.00;97390.22;5064230;28;20044;-82
2023/10/31 00:17:40;;;;;;;28.95;13.38;;;;;;;8.44;100.00;97404.44;5067447;28;20093;-84
2023/10/31 00:20:24;;;;;;;23.13;12.93;;;;;;;8.44;100.00;97384.31;5062937;28;20058;-81
2023/10/31 00:23:08;;;;;;;19.02;12.27;;;;;;;8.53;100.00;97403.13;5068517;28;20040;-80
2023/10/31 00:25:52;;;;;;;23.98;12.02;;;;;;;8.43;100.00;97398.41;5060734;28;20044;-85
2023/10/31 00:28:36;;;;;;;60.60;13.75;;;;;;;8.51;100.00;97404.38;5064051;28;20121;-82
2023/10/31 00:31:20;;;;;;;18.88;10.85;;;;;;;8.56;100.00;97401.91;5064121;28;20043;-81
2023/10/31 00:34:04;;;;;;;23.73;12.90;;;;;;;8.49;100.00;97395.94;5059979;28;20039;-82
2023/10/31 00:36:49;;;;;;;21.13;11.68;;;;;;;8.59;100.00;97396.22;5062375;28;20394;-83
2023/10/31 00:39:34;;;;;;;22.42;12.45;;;;;;;8.56;100.00;97391.44;5057802;28;20052;-83
2023/10/31 00:42:18;;;;;;;21.73;11.95;;;;;;;8.49;100.00;97395.94;5058877;28;20394;-81
2023/10/31 00:45:02;;;;;;;19.00;11.18;;;;;;;8.53;100.00;97386.66;5062719;28;20032;-84
2023/10/31 00:47:47;;;;;;;30.42;12.18;;;;;;;8.23;100.00;97353.41;5065820;28;20047;-83
2023/10/31 00:50:31;;;;;;;110.57;16.33;;;;;;;8.51;100.00;97399.16;5061208;28;20044;-82
2023/10/31 00:53:16;;;;;;;18.65;10.02;;;;;;;8.41;100.00;97389.19;5064369;28;20174;-83
2023/10/31 00:56:01;;;;;;;23.58;10.90;;;;;;;8.35;100.00;97390.06;5061515;28;20059;-80
2023/10/31 00:58:45;;;;;;;88.75;13.35;;;;;;;8.22;100.00;97391.03;5060238;28;20036;-80
2023/10/31 01:01:29;;;;;;;27.67;10.43;;;;;;;8.19;100.00;97391.47;5060526;28;20544;-81
2023/10/31 01:04:13;;;;;;;43.78;10.60;;;;;;;8.27;100.00;97397.19;5059353;28;20097;-81
2023/10/31 01:06:57;;;;;;;29.63;10.00;;;;;;;8.36;100.00;97386.47;5061942;28;20391;-82
2023/10/31 01:09:41;;;;;;;291.35;24.67;;;;;;;8.40;100.00;97393.63;5059383;28;20725;-81
2023/10/31 01:12:27;;;;;;;19.92;9.43;;;;;;;8.55;100.00;97384.63;5063455;28;20046;-82
2023/10/31 01:15:11;;;;;;;289.65;22.00;;;;;;;8.44;100.00;97391.38;5059830;28;20040;-82
2023/10/31 01:17:55;;;;;;;114.70;12.07;;;;;;;8.19;100.00;97376.59;5058668;28;20081;-83
2023/10/31 01:20:39;;;;;;;75.85;10.73;;;;;;;8.29;100.00;97389.94;5060297;28;20517;-82
2023/10/31 01:23:23;;;;;;;363.65;23.48;;;;;;;8.40;100.00;97385.78;5061723;28;20152;-82
2023/10/31 01:26:07;;;;;;;204.20;16.00;;;;;;;8.41;100.00;97379.53;5066235;28;20094;-82
2023/10/31 01:28:52;;;;;;;207.85;15.85;;;;;;;8.37;100.00;97391.44;5058445;28;20110;-80
2023/10/31 01:31:37;;;;;;;20.15;8.55;;;;;;;8.26;100.00;97392.22;5066162;28;20098;-82
2023/10/31 01:34:21;;;;;;;95.45;12.40;;;;;;;8.11;100.00;97390.75;5059500;28;20043;-81
2023/10/31 01:37:05;;;;;;;231.13;17.33;;;;;;;8.12;100.00;97392.34;5059957;28;20105;-81
2023/10/31 01:39:49;;;;;;;16.77;7.90;;;;;;;8.33;100.00;97402.56;5063637;28;20181;-82
2023/10/31 01:42:33;;;;;;;110.90;11.20;;;;;;;8.35;100.00;97403.13;5051615;28;20056;-80
2023/10/31 01:45:17;;;;;;;34.40;8.35;;;;;;;8.44;100.00;97413.06;5062423;28;20410;-81
2023/10/31 01:48:02;;;;;;;265.30;19.48;;;;;;;8.44;100.00;97418.31;5055134;28;20071;-81
2023/10/31 01:50:47;;;;;;;13.30;7.32;;;;;;;8.50;100.00;97413.25;5057634;28;20044;-80
2023/10/31 01:53:35;;;;;;;12.88;6.82;;;;;;;8.55;100.00;97421.22;5068746;28;20513;-80
2023/10/31 01:56:20;;;;;;;11.23;6.43;;;;;;;8.50;100.00;97415.88;5061773;28;20512;-81
2023/10/31 01:59:05;;;;;;;11.32;6.20;;;;;;;8.55;100.00;97426.47;5055975;28;20410;-81
2023/10/31 02:01:49;;;;;;;82.63;9.02;;;;;;;8.63;100.00;97435.81;5060877;28;20051;-81
2023/10/31 02:04:33;;;;;;;10.23;5.95;;;;;;;8.49;100.00;97422.88;5060825;28;20043;-81
2023/10/31 02:07:17;;;;;;;7.35;4.95;;;;;;;8.52;100.00;97426.91;5064699;28;20028;-81
2023/10/31 02:10:01;;;;;;;40.20;6.68;;;;;;;8.47;100.00;97418.91;5067895;28;20547;-81
2023/10/31 02:12:45;;;;;;;10.60;4.88;;;;;;;8.47;100.00;97411.84;5063805;28;20039;-81
2023/10/31 02:15:29;;;;;;;127.22;9.13;;;;;;;8.41;100.00;97415.34;5066728;28;20044;-81
2023/10/31 02:18:13;;;;;;;26.67;5.80;;;;;;;8.48;100.00;97415.28;5064799;28;20113;-81
2023/10/31 02:20:58;;;;;;;36.13;7.00;;;;;;;8.33;100.00;97418.25;5057704;28;20120;-80
2023/10/31 02:23:42;;;;;;;184.20;13.82;;;;;;;8.28;100.00;97416.31;5065380;28;20091;-81
2023/10/31 02:26:34;;;;;;;271.08;19.05;;;;;;;8.30;100.00;97409.03;5063624;28;20426;-83
2023/10/31 02:29:18;;;;;;;108.30;10.35;;;;;;;8.39;100.00;97412.16;5060287;28;20054;-83
2023/10/31 02:32:02;;;;;;;16.52;6.20;;;;;;;8.26;100.00;97403.44;5065493;28;20414;-81
2023/10/31 02:34:47;;;;;;;129.82;11.15;;;;;;;8.33;100.00;97398.16;5066791;28;20040;-81
2023/10/31 02:37:31;;;;;;;63.03;7.93;;;;;;;8.39;100.00;97399.88;5063615;28;20052;-82
2023/10/31 02:40:15;;;;;;;104.03;8.13;;;;;;;8.39;100.00;97402.47;5062774;28;20048;-83
2023/10/31 02:42:59;;;;;;;124.13;8.77;;;;;;;8.44;100.00;97397.38;5064739;28;20076;-81
2023/10/31 02:45:43;;;;;;;310.23;21.13;;;;;;;8.17;100.00;97393.50;5063732;28;20043;-81
2023/10/31 02:48:29;;;;;;;355.40;21.60;;;;;;;8.09;100.00;97387.56;5061212;28;20094;-80
2023/10/31 02:51:13;;;;;;;221.80;15.43;;;;;;;8.22;100.00;97391.03;5059160;28;20125;-80
2023/10/31 02:53:57;;;;;;;204.68;14.88;;;;;;;8.29;100.00;97389.16;5066295;28;20082;-80
2023/10/31 02:56:41;;;;;;;110.75;8.48;;;;;;;8.31;100.00;97379.28;5064193;28;20090;-81
2023/10/31 02:59:25;;;;;;;215.65;13.63;;;;;;;8.18;100.00;97385.47;5061330;28;20039;-82
2023/10/31 03:02:11;;;;;;;133.43;11.75;;;;;;;8.23;100.00;97395.25;5064339;28;20083;-80
2023/10/31 03:04:55;;;;;;;68.93;8.73;;;;;;;8.33;100.00;97392.09;5063553;28;20063;-80
2023/10/31 03:07:39;;;;;;;96.00;7.95;;;;;;;8.23;100.00;97400.47;5067208;28;20122;-81
2023/10/31 03:10:23;;;;;;;143.13;12.50;;;;;;;8.29;100.00;97404.84;5062544;28;20050;-81
2023/10/31 03:13:07;;;;;;;26.63;5.25;;;;;;;8.47;100.00;97406.63;5064688;28;20068;-80
2023/10/31 03:15:51;;;;;;;59.15;6.10;;;;;;;8.40;100.00;97391.00;5057986;28;20130;-82
2023/10/31 03:18:35;;;;;;;387.50;22.92;;;;;;;8.24;100.00;97402.88;5060767;28;20039;-80
2023/10/31 03:21:19;;;;;;;175.13;11.27;;;;;;;8.04;100.00;97403.09;5062006;28;20056;-81
2023/10/31 03:24:04;;;;;;;13.20;5.60;;;;;;;8.14;100.00;97384.28;5063991;28;20047;-83
2023/10/31 03:26:48;;;;;;;80.18;8.48;;;;;;;8.13;100.00;97396.56;5058917;28;20089;-83
2023/10/31 03:29:32;;;;;;;38.45;6.15;;;;;;;8.24;100.00;97387.19;5060136;28;20059;-80
2023/10/31 03:32:16;;;;;;;164.38;11.70;;;;;;;8.30;100.00;97388.13;5065383;28;20051;-82
2023/10/31 03:35:00;;;;;;;126.85;9.82;;;;;;;8.33;100.00;97398.16;5063430;28;20446;-82
2023/10/31 03:37:44;;;;;;;185.13;12.45;;;;;;;8.21;100.00;97405.13;5063847;28;20398;-83
2023/10/31 03:40:28;;;;;;;263.13;17.67;;;;;;;8.05;100.00;97396.06;5064580;28;20051;-82
2023/10/31 03:43:12;;;;;;;212.80;13.45;;;;;;;8.13;100.00;97388.72;5066433;28;20055;-82
2023/10/31 03:45:56;;;;;;;321.00;19.42;;;;;;;8.17;100.00;97393.50;5059045;28;20214;-81
2023/10/31 03:48:41;;;;;;;149.65;11.57;;;;;;;8.18;100.00;97390.69;5058684;28;20051;-82
2023/10/31 03:51:25;;;;;;;407.77;23.70;;;;;;;8.07;100.00;97370.50;5063471;28;20039;-82
2023/10/31 03:54:09;;;;;;;362.70;23.17;;;;;;;8.06;100.00;97393.25;5064716;28;20599;-80
2023/10/31 03:56:53;;;;;;;334.17;23.73;;;;;;;8.10;100.00;97394.41;5060845;28;20039;-80
2023/10/31 03:59:37;;;;;;;125.93;10.13;;;;;;;8.13;100.00;97396.56;5067514;28;20039;-82
2023/10/31 04:02:22;;;;;;;174.45;13.90;;;;;;;8.23;100.00;97392.63;5062915;28;20090;-81
2023/10/31 04:05:06;;;;;;;452.58;28.48;;;;;;;8.26;100.00;97398.22;5066466;28;20047;-82
2023/10/31 04:07:51;;;;;;;374.88;26.17;;;;;;;8.04;100.00;97402.31;5067361;28;20083;-82
2023/10/31 04:10:35;;;;;;;206.93;18.50;;;;;;;8.23;100.00;97392.63;5063925;28;20449;-81
2023/10/31 04:13:20;;;;;;;170.32;11.88;;;;;;;8.34;100.00;97393.69;5066059;28;20101;-81
2023/10/31 04:16:04;;;;;;;150.38;12.90;;;;;;;8.35;100.00;97390.88;5056148;28;20048;-81
2023/10/31 04:18:49;;;;;;;94.20;12.65;;;;;;;8.04;100.00;97390.03;5066695;28;20070;-81
2023/10/31 04:21:33;;;;;;;92.63;13.48;;;;;;;8.18;100.00;97379.44;5059392;28;20052;-81
2023/10/31 04:24:17;;;;;;;262.85;18.42;;;;;;;8.17;100.00;97375.22;5061815;28;20036;-81
2023/10/31 04:27:01;;;;;;;422.85;33.42;;;;;;;8.04;100.00;97371.72;5063916;28;20123;-83
2023/10/31 04:29:45;;;;;;;448.77;26.55;;;;;;;8.18;100.00;97382.03;5060968;28;20094;-80
2023/10/31 04:32:29;;;;;;;593.10;36.05;;;;;;;8.11;100.00;97388.16;5069121;28;20509;-81
2023/10/31 04:35:13;;;;;;;426.90;28.80;;;;;;;8.12;100.00;97384.53;5062206;28;20496;-80
2023/10/31 04:37:57;;;;;;;57.15;9.38;;;;;;;8.03;100.00;97380.59;5064780;28;20390;-80
2023/10/31 04:40:41;;;;;;;610.65;36.88;;;;;;;7.89;100.00;97387.78;5062926;28;20387;-80
2023/10/31 04:43:25;;;;;;;395.98;27.50;;;;;;;7.88;100.00;97393.25;5067048;28;20086;-82
2023/10/31 04:46:09;;;;;;;141.05;14.27;;;;;;;7.82;100.00;97398.31;5063302;28;20120;-80
2023/10/31 04:48:53;;;;;;;399.13;29.20;;;;;;;7.87;100.00;97405.50;5060381;28;20116;-81
2023/10/31 04:51:38;;;;;;;387.75;27.27;;;;;;;7.90;100.00;97404.28;5060580;28;20502;-81
2023/10/31 04:54:22;;;;;;;484.48;33.08;;;;;;;8.06;100.00;97411.53;5064657;28;20048;-81
2023/10/31 04:57:06;;;;;;;485.17;31.15;;;;;;;7.90;100.00;97405.06;5063298;28;20090;-81
2023/10/31 04:59:50;;;;;;;69.53;9.80;;;;;;;8.09;100.00;97407.66;5066347;28;20414;-81
2023/10/31 05:02:33;;;;;;;112.53;13.63;;;;;;;8.13;100.00;97411.44;5064426;28;20075;-81
2023/10/31 05:05:18;;;;;;;153.40;15.90;;;;;;;7.98;100.00;97404.78;5062970;28;20386;-80
2023/10/31 05:08:01;;;;;;;98.13;13.63;;;;;;;8.05;100.00;97403.91;5064635;28;20529;-80
2023/10/31 05:10:47;;;;;;;104.93;11.57;;;;;;;8.10;100.00;97410.06;5060219;28;20067;-80
2023/10/31 05:13:31;;;;;;;24.50;10.10;;;;;;;8.21;100.00;97424.22;5064529;28;20044;-79
2023/10/31 05:16:15;;;;;;;14.75;7.82;;;;;;;8.33;100.00;97420.84;5055406;28;20090;-80
2023/10/31 05:19:04;;;;;;;11.73;6.15;;;;;;;8.33;100.00;97426.91;5066001;28;21267;-80
2023/10/31 05:21:48;;;;;;;20.42;7.30;;;;;;;8.23;100.00;97431.84;5062910;28;20055;-80
2023/10/31 05:24:32;;;;;;;11.88;6.30;;;;;;;8.13;100.00;97420.09;5059448;28;20047;-80
2023/10/31 05:27:16;;;;;;;13.40;6.88;;;;;;;8.12;100.00;97418.50;5064194;28;20098;-80
2023/10/31 05:30:00;;;;;;;16.25;6.35;;;;;;;8.04;100.00;97420.59;5065341;28;20090;-79
2023/10/31 05:32:44;;;;;;;10.90;6.22;;;;;;;8.11;100.00;97416.91;5061562;28;20040;-81
2023/10/31 05:35:28;;;;;;;161.07;14.43;;;;;;;8.06;100.00;97424.59;5060783;28;20048;-81
2023/10/31 05:38:12;;;;;;;55.58;7.68;;;;;;;8.00;100.00;97421.03;5062095;28;20043;-80
2023/10/31 05:40:56;;;;;;;11.52;6.13;;;;;;;8.23;100.00;97418.75;5063811;28;20138;-80
2023/10/31 05:43:40;;;;;;;13.05;6.05;;;;;;;8.13;100.00;97419.28;5059974;28;20048;-81
2023/10/31 05:46:24;;;;;;;11.55;6.07;;;;;;;8.16;100.00;97424.09;5061749;28;20044;-79
2023/10/31 05:49:10;;;;;;;13.88;5.47;;;;;;;8.20;100.00;97430.47;5062844;28;20036;-80
2023/10/31 05:51:54;;;;;;;8.52;4.68;;;;;;;8.24;100.00;97428.19;5063599;28;20044;-81
2023/10/31 05:54:38;;;;;;;9.98;4.35;;;;;;;8.26;100.00;97429.59;5057996;28;20468;-80
2023/10/31 05:57:22;;;;;;;7.85;3.85;;;;;;;8.26;100.00;97434.03;5062299;28;20449;-80
2023/10/31 06:00:08;;;;;;;9.13;4.43;;;;;;;8.26;100.00;97436.66;5059821;28;20161;-81
2023/10/31 06:02:52;;;;;;;9.77;4.45;;;;;;;8.12;100.00;97418.50;5063168;28;20097;-80
2023/10/31 06:05:36;;;;;;;8.10;4.63;;;;;;;8.03;100.00;97426.84;5062474;28;20486;-80
2023/10/31 06:08:20;;;;;;;14.20;5.03;;;;;;;7.91;100.00;97424.16;5062420;28;20095;-80
2023/10/31 06:11:04;;;;;;;11.07;5.38;;;;;;;7.91;100.00;97434.59;5059530;28;20090;-79
2023/10/31 06:13:49;;;;;;;18.23;5.10;;;;;;;7.96;100.00;97432.13;5058639;28;20047;-82
2023/10/31 06:16:32;;;;;;;17.15;5.50;;;;;;;7.89;100.00;97421.75;5055745;28;20663;-81
2023/10/31 06:19:17;;;;;;;17.42;5.63;;;;;;;8.09;100.00;97432.00;5058939;28;20044;-81
2023/10/31 06:22:01;;;;;;;11.15;5.60;;;;;;;8.12;100.00;97428.94;5063407;28;20132;-81
2023/10/31 06:24:45;;;;;;;24.52;6.43;;;;;;;8.15;100.00;97425.09;5056825;28;20048;-81
2023/10/31 06:27:29;;;;;;;20.77;6.05;;;;;;;7.85;100.00;97425.81;5060976;28;20036;-80
2023/10/31 06:30:13;;;;;;;50.88;7.57;;;;;;;8.02;100.00;97420.81;5063655;28;20093;-81
2023/10/31 06:32:58;;;;;;;86.95;9.23;;;;;;;8.09;100.00;97432.00;5057509;28;20043;-82
2023/10/31 06:35:42;;;;;;;248.80;16.55;;;;;;;8.18;100.00;97436.94;5060173;28;20101;-81
2023/10/31 06:38:26;;;;;;;129.40;10.20;;;;;;;8.24;100.00;97446.50;5054253;28;20048;-81
2023/10/31 06:41:10;;;;;;;157.02;12.13;;;;;;;8.33;100.00;97449.63;5060511;28;20095;-82
2023/10/31 06:43:54;;;;;;;178.88;12.45;;;;;;;8.38;100.00;97442.72;5056268;28;20118;-81
2023/10/31 06:46:38;;;;;;;120.43;11.98;;;;;;;8.27;100.00;97443.47;5059618;28;20043;-80
2023/10/31 06:49:23;;;;;;;45.88;8.57;;;;;;;8.39;100.00;97444.31;5057615;28;20453;-81
2023/10/31 06:52:08;;;;;;;136.65;11.45;;;;;;;8.52;100.00;97453.06;5064840;28;20048;-82
2023/10/31 06:54:52;;;;;;;77.97;10.18;;;;;;;8.47;100.00;97445.84;5066880;28;20040;-81
2023/10/31 06:57:35;;;;;;;234.25;17.63;;;;;;;8.46;100.00;97459.94;5061528;28;20117;-80
2023/10/31 07:00:20;;;;;;;173.32;15.57;;;;;;;8.55;100.00;97463.06;5062430;28;20079;-80
2023/10/31 07:03:08;;;;;;;447.85;30.50;;;;;;;8.42;100.00;97459.56;5061417;28;20124;-81
2023/10/31 07:05:53;;;;;;;68.63;12.25;;;;;;;8.51;100.00;97464.53;5062384;28;20135;-81
2023/10/31 07:08:37;;;;;;;389.30;27.05;;;;;;;8.44;100.00;97467.19;5065125;28;20040;-81
2023/10/31 07:11:21;;;;;;;359.75;29.10;;;;;;;8.52;100.00;97463.53;5061622;28;20422;-81
2023/10/31 07:14:05;;;;;;;226.18;24.10;;;;;;;8.48;100.00;97470.19;5062270;28;20044;-81
2023/10/31 07:16:49;;;;;;;43.55;12.10;;;;;;;8.60;100.00;97471.06;5069392;28;20421;-87
2023/10/31 07:19:32;;;;;;;139.27;17.75;;;;;;;8.65;100.00;97468.59;5076933;28;20055;-89
2023/10/31 07:22:16;;;;;;;37.92;13.15;;;;;;;8.64;100.00;97461.75;5067396;28;20128;-87
2023/10/31 07:25:03;;;;;;;248.32;20.90;;;;;;;8.56;100.00;97455.03;5066811;28;20094;-83
2023/10/31 07:27:47;;;;;;;79.10;12.07;;;;;;;8.74;100.00;97470.88;5061776;28;20039;-83
2023/10/31 07:30:31;;;;;;;319.40;24.73;;;;;;;8.73;100.00;97459.63;5062678;28;20047;-86
2023/10/31 07:33:15;;;;;;;61.40;12.48;;;;;;;8.79;100.00;97482.28;5063472;28;20052;-85
2023/10/31 07:35:58;;;;;;;343.45;25.70;;;;;;;8.67;100.00;97481.44;5070086;28;20079;-86
2023/10/31 07:38:42;;;;;;;435.52;28.42;;;;;;;8.49;100.00;97479.63;5069777;28;20051;-84
2023/10/31 07:41:26;;;;;;;87.25;12.10;;;;;;;8.54;100.00;97474.56;5067110;28;20071;-84
2023/10/31 07:44:10;;;;;;;373.45;29.85;;;;;;;8.59;100.00;97476.50;5061860;28;20044;-84
2023/10/31 07:46:54;;;;;;;23.90;10.23;;;;;;;8.80;100.00;97496.97;5063182;28;20040;-84
2023/10/31 07:49:38;;;;;;;296.60;25.73;;;;;;;8.66;100.00;97478.03;5060470;28;20163;-82
2023/10/31 07:52:22;;;;;;;270.80;22.88;;;;;;;8.53;100.00;97465.09;5068229;28;20129;-85
2023/10/31 07:55:07;;;;;;;27.25;12.07;;;;;;;8.82;100.00;97492.31;5068888;28;20055;-82
2023/10/31 07:57:51;;;;;;;115.20;13.55;;;;;;;8.93;100.00;97505.66;5061805;28;20062;-84
2023/10/31 08:00:36;;;;;;;164.27;16.40;;;;;;;9.00;100.00;97511.63;5065929;28;20051;-84
2023/10/31 08:03:20;;;;;;;91.28;13.70;;;;;;;8.98;100.00;97492.72;5068729;28;20567;-82
2023/10/31 08:06:06;;;;;;;49.17;13.90;;;;;;;9.02;100.00;97509.56;5058589;28;20093;-82
2023/10/31 08:08:51;;;;;;;152.27;17.23;;;;;;;8.93;100.00;97503.03;5058570;28;20056;-81
2023/10/31 08:11:35;;;;;;;25.95;11.43;;;;;;;8.96;100.00;97511.25;5058646;28;20047;-81
2023/10/31 08:14:19;;;;;;;327.35;26.13;;;;;;;8.79;100.00;97507.66;5060878;28;20552;-81
2023/10/31 08:17:03;;;;;;;186.77;16.30;;;;;;;8.86;100.00;97501.31;5056115;28;20410;-86
2023/10/31 08:19:47;;;;;;;162.73;16.67;;;;;;;8.89;100.00;97501.88;5058752;28;20063;-82
2023/10/31 08:22:33;;;;;;;294.42;24.00;;;;;;;8.90;100.00;97517.38;5058113;28;20128;-78
2023/10/31 08:25:17;;;;;;;276.02;24.33;;;;;;;8.79;100.00;97510.25;5060215;28;20504;-78
2023/10/31 08:28:01;;;;;;;173.05;17.70;;;;;;;8.92;100.00;97512.72;5064355;28;20043;-87
2023/10/31 08:30:45;;;;;;;32.42;13.50;;;;;;;9.00;100.00;97509.78;5060667;28;20047;-83
2023/10/31 08:33:30;;;;;;;67.80;14.40;;;;;;;9.10;100.00;97505.84;5065498;28;20502;-86
2023/10/31 08:36:14;;;;;;;28.48;13.07;;;;;;;9.14;100.00;97512.22;5056404;28;20172;-84
2023/10/31 08:38:57;;;;;;;109.43;14.45;;;;;;;9.16;100.00;97506.78;5058132;28;20505;-84
2023/10/31 08:41:52;;;;;;;55.40;12.30;;;;;;;9.26;100.00;97502.59;5058538;28;20099;-85
2023/10/31 08:44:42;;;;;;;62.17;13.10;;;;;;;9.34;100.00;97503.28;5067815;28;20040;-85
2023/10/31 08:47:28;;;;;;;152.00;17.05;;;;;;;9.26;100.00;97491.31;5066063;28;20055;-86
2023/10/31 08:50:13;;;;;;;93.75;13.57;;;;;;;9.15;100.00;97487.66;5061528;28;20048;-86
2023/10/31 08:52:57;;;;;;;103.20;15.35;;;;;;;9.11;100.00;97483.88;5061577;28;20116;-86
2023/10/31 08:55:45;;;;;;;26.92;11.95;;;;;;;9.40;100.00;97532.00;5058137;28;20140;-88
2023/10/31 08:58:29;;;;;;;30.38;12.85;;;;;;;9.39;100.00;97517.31;5058997;28;20602;-87
2023/10/31 09:01:13;;;;;;;29.38;12.95;;;;;;;9.40;100.00;97531.19;5063635;28;20564;-86
2023/10/31 09:03:58;;;;;;;26.33;12.25;;;;;;;9.56;100.00;97532.38;5065150;28;20121;-86
2023/10/31 09:06:44;;;;;;;37.38;13.35;;;;;;;9.62;100.00;97528.84;5056389;28;20564;-90
2023/10/31 09:09:28;;;;;;;26.52;12.68;;;;;;;9.65;100.00;97523.16;5056342;28;20048;-87
2023/10/31 09:12:12;;;;;;;26.42;11.98;;;;;;;9.70;100.00;97514.63;5055847;28;20086;-89
2023/10/31 09:14:56;;;;;;;63.33;14.15;;;;;;;9.56;100.00;97514.81;5055664;28;20402;-87
2023/10/31 09:17:40;;;;;;;35.63;12.25;;;;;;;9.79;100.00;97509.84;5055666;28;20052;-87
2023/10/31 09:20:24;;;;;;;74.45;15.68;;;;;;;9.89;100.00;97517.16;5055404;28;20455;-89
2023/10/31 09:23:08;;;;;;;32.85;12.77;;;;;;;10.00;100.00;97509.28;5054677;28;20056;-87
2023/10/31 09:25:52;;;;;;;66.22;13.80;;;;;;;9.94;100.00;97515.44;5055504;28;20094;-89
2023/10/31 09:28:39;;;;;;;240.43;21.88;;;;;;;9.86;100.00;97502.66;5056200;28;20105;-89
2023/10/31 09:31:23;;;;;;;101.28;17.00;;;;;;;10.11;100.00;97515.53;5056963;28;20070;-88
2023/10/31 09:34:07;;;;;;;84.28;14.27;;;;;;;10.30;100.00;97518.03;5057080;28;20044;-88
2023/10/31 09:36:51;;;;;;;51.03;14.35;;;;;;;10.29;100.00;97526.94;5056356;28;20040;-88
2023/10/31 09:39:35;;;;;;;48.15;13.63;;;;;;;10.17;100.00;97523.50;5056968;28;20449;-91
2023/10/31 09:42:19;;;;;;;136.90;17.92;;;;;;;10.14;100.00;97520.31;5056290;28;20099;-89
2023/10/31 09:45:04;;;;;;;75.88;13.95;;;;;;;10.25;100.00;97526.59;5056285;28;20568;-89
2023/10/31 09:47:48;;;;;;;340.88;27.73;;;;;;;9.86;100.00;97495.63;5056895;28;20399;-86
2023/10/31 09:50:33;;;;;;;272.27;25.02;;;;;;;9.97;100.00;97532.53;5056950;28;20449;-89
2023/10/31 09:53:17;;;;;;;44.33;13.80;;;;;;;10.17;100.00;97528.75;5056726;28;20048;-90
2023/10/31 09:56:01;;;;;;;286.70;24.58;;;;;;;9.97;100.00;97519.41;5056891;28;20110;-90
2023/10/31 09:58:46;;;;;;;96.38;14.52;;;;;;;10.19;100.00;97530.13;5057825;28;20051;-88
2023/10/31 10:01:31;;;;;;;84.03;14.80;;;;;;;10.06;100.00;97527.75;5056395;28;20048;-91
2023/10/31 10:04:17;;;;;;;459.83;31.80;;;;;;;9.96;100.00;97521.25;5056307;28;20087;-87
2023/10/31 10:07:03;;;;;;;225.93;22.00;;;;;;;10.15;100.00;97518.53;5056896;28;20044;-90
2023/10/31 10:09:47;;;;;;;469.48;30.30;;;;;;;10.13;100.00;97534.47;5056386;28;20136;-88
2023/10/31 10:12:31;;;;;;;276.42;23.05;;;;;;;10.07;100.00;97524.91;5056824;28;20064;-86
2023/10/31 10:15:15;;;;;;;103.70;18.10;;;;;;;10.22;100.00;97531.47;5056427;28;20099;-89
2023/10/31 10:17:59;;;;;;;286.65;23.23;;;;;;;9.97;100.00;97516.78;5056036;28;20107;-89
2023/10/31 10:21:01;;;;;;;54.00;14.15;;;;;;;10.25;100.00;97531.84;5055594;28;20446;-88
2023/10/31 10:23:48;;;;;;;109.60;16.30;;;;;;;10.29;100.00;97526.94;5055675;28;20136;-89
2023/10/31 10:26:32;;;;;;;62.90;16.02;;;;;;;10.33;100.00;97525.44;5058392;28;20060;-91
2023/10/31 10:29:16;;;;;;;26.40;12.85;;;;;;;10.41;100.00;97534.81;5061184;28;20043;-88
2023/10/31 10:32:00;;;;;;;26.55;14.00;;;;;;;10.38;100.00;97525.53;5059804;28;20526;-87
2023/10/31 10:34:45;;;;;;;40.65;13.88;;;;;;;10.49;100.00;97525.81;5060056;28;20110;-88
2023/10/31 10:37:30;;;;;;;25.85;13.43;;;;;;;10.59;100.00;97533.09;5060798;28;20466;-88
2023/10/31 10:40:15;;;;;;;26.42;13.07;;;;;;;10.76;100.00;97538.38;5059274;28;20043;-90
2023/10/31 10:43:01;;;;;;;26.33;13.15;;;;;;;10.66;100.00;97537.16;5060367;28;20103;-89
2023/10/31 10:45:48;;;;;;;24.52;12.80;;;;;;;10.54;100.00;97525.91;5060838;28;20386;-89
2023/10/31 10:48:37;;;;;;;23.75;12.93;;;;;;;10.68;100.00;97531.66;5060853;28;20129;-89
2023/10/31 10:51:24;;;;;;;25.15;12.68;;;;;;;10.65;100.00;97546.06;5060371;28;20063;-89
2023/10/31 10:54:14;;;;;;;24.25;12.57;;;;;;;10.73;100.00;97544.09;5060063;28;20407;-90
2023/10/31 10:57:14;;;;;;;23.05;12.10;;;;;;;10.66;100.00;97526.69;5058628;28;20082;-89
2023/10/31 11:00:03;;;;;;;22.20;12.68;;;;;;;10.56;100.00;97532.50;5059797;28;20023;-88
2023/10/31 11:02:50;;;;;;;39.63;13.23;;;;;;;10.64;100.00;97544.47;5059148;28;20403;-88
2023/10/31 11:05:35;;;;;;;57.13;12.65;;;;;;;10.33;100.00;97528.06;5059429;28;20099;-88
2023/10/31 11:08:23;;;;;;;64.75;13.23;;;;;;;10.43;100.00;97549.31;5060490;28;20083;-89
2023/10/31 11:11:07;;;;;;;38.03;11.68;;;;;;;10.19;100.00;97521.47;5059145;28;20394;-87
2023/10/31 11:13:52;;;;;;;20.10;10.77;;;;;;;10.42;100.00;97539.03;5060464;28;20099;-88
2023/10/31 11:16:47;;;;;;;28.40;12.38;;;;;;;10.43;100.00;97533.56;5059822;28;20179;-88
2023/10/31 11:19:33;;;;;;;24.63;11.23;;;;;;;10.38;100.00;97504.56;5059663;28;20124;-87
2023/10/31 11:22:18;;;;;;;41.45;12.55;;;;;;;10.42;100.00;97539.84;5059196;28;20094;-88
2023/10/31 11:25:02;;;;;;;21.17;11.73;;;;;;;10.56;100.00;97527.28;5059222;28;20051;-90
2023/10/31 11:27:46;;;;;;;56.10;12.95;;;;;;;10.48;100.00;97513.72;5058851;28;20040;-90
2023/10/31 11:30:35;;;;;;;28.27;12.43;;;;;;;10.66;100.00;97531.91;5058297;28;20477;-89
2023/10/31 11:33:21;;;;;;;76.40;14.55;;;;;;;10.75;100.00;97532.34;5058842;28;20043;-88
2023/10/31 11:36:06;;;;;;;23.30;11.93;;;;;;;10.86;100.00;97530.72;5057233;28;20171;-91
2023/10/31 11:39:10;;;;;;;32.42;13.15;;;;;;;11.05;100.00;97541.06;5057049;28;20401;-90
2023/10/31 11:41:55;;;;;;;25.15;12.25;;;;;;;11.16;100.00;97529.69;5058612;28;20453;-91
2023/10/31 11:44:55;;;;;;;28.70;12.93;;;;;;;11.15;100.00;97507.09;5059071;28;20060;-89
2023/10/31 11:47:49;;;;;;;24.08;12.88;;;;;;;11.24;100.00;97505.69;5059092;28;20070;-87
2023/10/31 11:50:34;;;;;;;19.88;11.63;;;;;;;11.67;100.00;97518.44;5060016;28;20044;-87
2023/10/31 11:53:20;;;;;;;82.28;15.15;;;;;;;11.61;100.00;97524.66;5059287;28;20115;-89
2023/10/31 11:56:05;;;;;;;21.25;12.43;;;;;;;11.55;100.00;97532.44;5059323;28;20067;-88
2023/10/31 11:59:03;;;;;;;21.70;12.00;;;;;;;11.57;100.00;97530.38;5059316;28;20130;-90
2023/10/31 12:01:47;;;;;;;19.48;11.98;;;;;;;11.60;100.00;97523.06;5059418;28;20190;-89
2023/10/31 12:04:31;;;;;;;21.83;11.50;;;;;;;11.59;100.00;97530.16;5059020;28;20048;-87
2023/10/31 12:07:15;;;;;;;18.42;11.27;;;;;;;11.70;100.00;97523.22;5057294;28;20043;-88
2023/10/31 12:09:59;;;;;;;17.75;11.60;;;;;;;11.63;100.00;97533.09;5057765;28;20140;-88
2023/10/31 12:12:43;;;;;;;19.50;11.77;;;;;;;11.48;100.00;97515.25;5058599;28;20040;-88
2023/10/31 12:15:27;;;;;;;18.08;10.23;;;;;;;11.60;100.00;97518.59;5058568;28;20517;-89
2023/10/31 12:18:11;;;;;;;19.33;11.90;;;;;;;11.66;100.00;97522.91;5058151;28;20047;-88
2023/10/31 12:20:56;;;;;;;19.23;11.32;;;;;;;11.62;100.00;97521.78;5058291;28;20086;-88
2023/10/31 12:23:40;;;;;;;18.65;11.45;;;;;;;11.61;100.00;97537.81;5058232;28;20114;-89
2023/10/31 12:26:26;;;;;;;18.35;11.30;;;;;;;11.53;100.00;97534.53;5060485;28;20052;-88
2023/10/31 12:29:10;;;;;;;22.23;12.77;;;;;;;11.62;100.00;97550.69;5059208;28;20048;-89
2023/10/31 12:31:54;;;;;;;;;;;;;;;11.62;100.00;97549.91;5058635;28;20457;-90
2023/10/31 12:34:43;;;;;;;21.67;13.93;;;;;;;11.51;100.00;97531.34;5058320;28;19923;-91